sensor_id;sensor_type;location;lat;lon;timestamp;temperature;humidity
16441;DHT22;8330;-33.858;151.184;2023-12-22T00:01:51;24.30;99.90
16441;DHT22;8330;-33.858;151.184;2023-12-22T00:04:22;24.40;99.90
16441;DHT22;8330;-33.858;151.184;2023-12-22T00:06:52;24.20;99.90
16441;DHT22;8330;-33.858;151.184;2023-12-22T00:09:25;24.20;99.90
16441;DHT22;8330;-33.858;151.184;2023-12-22T00:11:56;24.20;99.90
16441;DHT22;8330;-33.858;151.184;2023-12-22T00:14:27;24.10;99.90
16441;DHT22;8330;-33.858;151.184;2023-12-22T00:16:57;24.20;99.90
16441;DHT22;8330;-33.858;151.184;2023-12-22T00:19:28;24.20;99.90
16441;DHT22;8330;-33.858;151.184;2023-12-22T00:21:59;24.20;99.90
16441;DHT22;8330;-33.858;151.184;2023-12-22T00:24:33;24.30;99.90
16441;DHT22;8330;-33.858;151.184;2023-12-22T00:27:04;24.20;99.90
16441;DHT22;8330;-33.858;151.184;2023-12-22T00:29:34;24.10;99.90
16441;DHT22;8330;-33.858;151.184;2023-12-22T00:32:06;23.90;99.90
16441;DHT22;8330;-33.858;151.184;2023-12-22T00:34:37;24.00;99.90
16441;DHT22;8330;-33.858;151.184;2023-12-22T00:37:09;24.10;99.90
16441;DHT22;8330;-33.858;151.184;2023-12-22T00:39:44;24.20;99.90
16441;DHT22;8330;-33.858;151.184;2023-12-22T00:42:15;24.30;99.90
16441;DHT22;8330;-33.858;151.184;2023-12-22T00:44:46;24.30;99.90
16441;DHT22;8330;-33.858;151.184;2023-12-22T00:47:15;24.30;99.90
16441;DHT22;8330;-33.858;151.184;2023-12-22T00:49:46;24.30;99.90
16441;DHT22;8330;-33.858;151.184;2023-12-22T00:52:17;24.30;99.90
16441;DHT22;8330;-33.858;151.184;2023-12-22T00:54:49;24.40;99.90
16441;DHT22;8330;-33.858;151.184;2023-12-22T00:57:20;24.40;99.90
16441;DHT22;8330;-33.858;151.184;2023-12-22T00:59:51;24.40;99.90
16441;DHT22;8330;-33.858;151.184;2023-12-22T01:02:22;24.50;99.90
16441;DHT22;8330;-33.858;151.184;2023-12-22T01:04:52;24.40;99.90
16441;DHT22;8330;-33.858;151.184;2023-12-22T01:07:23;24.40;99.90
16441;DHT22;8330;-33.858;151.184;2023-12-22T01:09:56;24.40;99.90
16441;DHT22;8330;-33.858;151.184;2023-12-22T01:12:29;24.40;99.90
16441;DHT22;8330;-33.858;151.184;2023-12-22T01:15:00;24.50;99.90
16441;DHT22;8330;-33.858;151.184;2023-12-22T01:17:31;24.40;99.90
16441;DHT22;8330;-33.858;151.184;2023-12-22T01:20:02;24.30;99.90
16441;DHT22;8330;-33.858;151.184;2023-12-22T01:22:33;24.40;99.90
16441;DHT22;8330;-33.858;151.184;2023-12-22T01:25:08;24.40;99.90
16441;DHT22;8330;-33.858;151.184;2023-12-22T01:27:39;24.30;99.90
16441;DHT22;8330;-33.858;151.184;2023-12-22T01:30:10;24.20;99.90
16441;DHT22;8330;-33.858;151.184;2023-12-22T01:32:41;24.30;99.90
16441;DHT22;8330;-33.858;151.184;2023-12-22T01:35:11;24.30;99.90
16441;DHT22;8330;-33.858;151.184;2023-12-22T01:37:42;24.40;99.90
16441;DHT22;8330;-33.858;151.184;2023-12-22T01:40:18;24.50;99.90
16441;DHT22;8330;-33.858;151.184;2023-12-22T01:42:49;24.60;99.90
16441;DHT22;8330;-33.858;151.184;2023-12-22T01:45:20;24.60;99.90
16441;DHT22;8330;-33.858;151.184;2023-12-22T01:47:50;24.70;99.90
16441;DHT22;8330;-33.858;151.184;2023-12-22T01:50:22;24.70;98.90
16441;DHT22;8330;-33.858;151.184;2023-12-22T01:52:53;24.70;98.20
16441;DHT22;8330;-33.858;151.184;2023-12-22T01:55:26;24.70;98.90
16441;DHT22;8330;-33.858;151.184;2023-12-22T01:57:57;24.70;97.10
16441;DHT22;8330;-33.858;151.184;2023-12-22T02:00:29;24.80;96.80
16441;DHT22;8330;-33.858;151.184;2023-12-22T02:03:00;24.70;96.30
16441;DHT22;8330;-33.858;151.184;2023-12-22T02:05:30;24.90;97.20
16441;DHT22;8330;-33.858;151.184;2023-12-22T02:08:01;24.70;96.90
16441;DHT22;8330;-33.858;151.184;2023-12-22T02:10:34;24.80;96.20
16441;DHT22;8330;-33.858;151.184;2023-12-22T02:13:05;24.80;96.40
16441;DHT22;8330;-33.858;151.184;2023-12-22T02:15:37;24.90;96.40
16441;DHT22;8330;-33.858;151.184;2023-12-22T02:18:12;24.90;96.40
16441;DHT22;8330;-33.858;151.184;2023-12-22T02:20:45;25.00;98.10
16441;DHT22;8330;-33.858;151.184;2023-12-22T02:23:17;25.10;97.10
16441;DHT22;8330;-33.858;151.184;2023-12-22T02:25:49;25.10;96.20
16441;DHT22;8330;-33.858;151.184;2023-12-22T02:28:25;25.20;96.80
16441;DHT22;8330;-33.858;151.184;2023-12-22T02:30:59;25.10;95.20
16441;DHT22;8330;-33.858;151.184;2023-12-22T02:33:32;25.10;95.90
16441;DHT22;8330;-33.858;151.184;2023-12-22T02:36:04;25.10;94.80
16441;DHT22;8330;-33.858;151.184;2023-12-22T02:38:38;24.90;95.90
16441;DHT22;8330;-33.858;151.184;2023-12-22T02:41:10;24.90;96.20
16441;DHT22;8330;-33.858;151.184;2023-12-22T02:43:41;24.90;96.40
16441;DHT22;8330;-33.858;151.184;2023-12-22T02:46:15;24.90;95.50
16441;DHT22;8330;-33.858;151.184;2023-12-22T02:48:46;24.90;96.00
16441;DHT22;8330;-33.858;151.184;2023-12-22T02:51:17;24.90;95.00
16441;DHT22;8330;-33.858;151.184;2023-12-22T02:53:49;24.90;95.40
16441;DHT22;8330;-33.858;151.184;2023-12-22T02:56:20;24.90;95.40
16441;DHT22;8330;-33.858;151.184;2023-12-22T02:58:51;24.90;95.40
16441;DHT22;8330;-33.858;151.184;2023-12-22T03:01:22;25.00;95.30
16441;DHT22;8330;-33.858;151.184;2023-12-22T03:03:52;25.10;94.10
16441;DHT22;8330;-33.858;151.184;2023-12-22T03:06:23;25.10;94.10
16441;DHT22;8330;-33.858;151.184;2023-12-22T03:08:56;25.20;95.10
16441;DHT22;8330;-33.858;151.184;2023-12-22T03:11:26;25.20;95.00
16441;DHT22;8330;-33.858;151.184;2023-12-22T03:13:57;25.30;95.50
16441;DHT22;8330;-33.858;151.184;2023-12-22T03:16:28;25.30;96.10
16441;DHT22;8330;-33.858;151.184;2023-12-22T03:18:59;25.30;95.90
16441;DHT22;8330;-33.858;151.184;2023-12-22T03:21:30;25.40;94.40
16441;DHT22;8330;-33.858;151.184;2023-12-22T03:24:02;25.40;94.20
16441;DHT22;8330;-33.858;151.184;2023-12-22T03:26:33;25.30;94.70
16441;DHT22;8330;-33.858;151.184;2023-12-22T03:29:04;25.30;93.70
16441;DHT22;8330;-33.858;151.184;2023-12-22T03:31:35;25.30;93.30
16441;DHT22;8330;-33.858;151.184;2023-12-22T03:34:05;25.40;92.20
16441;DHT22;8330;-33.858;151.184;2023-12-22T03:36:36;25.50;92.80
16441;DHT22;8330;-33.858;151.184;2023-12-22T03:39:09;25.60;92.10
16441;DHT22;8330;-33.858;151.184;2023-12-22T03:41:40;25.50;92.00
16441;DHT22;8330;-33.858;151.184;2023-12-22T03:44:10;25.60;91.70
16441;DHT22;8330;-33.858;151.184;2023-12-22T03:46:41;25.60;90.10
16441;DHT22;8330;-33.858;151.184;2023-12-22T03:49:12;25.60;90.30
16441;DHT22;8330;-33.858;151.184;2023-12-22T03:51:43;25.70;89.60
16441;DHT22;8330;-33.858;151.184;2023-12-22T03:54:15;25.80;90.10
16441;DHT22;8330;-33.858;151.184;2023-12-22T03:56:46;25.80;89.40
16441;DHT22;8330;-33.858;151.184;2023-12-22T03:59:17;25.80;86.60
16441;DHT22;8330;-33.858;151.184;2023-12-22T04:01:52;25.80;86.30
16441;DHT22;8330;-33.858;151.184;2023-12-22T04:04:23;25.70;87.10
16441;DHT22;8330;-33.858;151.184;2023-12-22T04:06:55;25.60;86.30
16441;DHT22;8330;-33.858;151.184;2023-12-22T04:09:28;25.50;88.70
16441;DHT22;8330;-33.858;151.184;2023-12-22T04:11:59;25.50;90.00
16441;DHT22;8330;-33.858;151.184;2023-12-22T04:14:30;25.50;90.20
16441;DHT22;8330;-33.858;151.184;2023-12-22T04:17:00;25.60;90.50
16441;DHT22;8330;-33.858;151.184;2023-12-22T04:19:31;25.60;90.40
16441;DHT22;8330;-33.858;151.184;2023-12-22T04:22:02;25.70;90.00
16441;DHT22;8330;-33.858;151.184;2023-12-22T04:24:34;25.60;89.60
16441;DHT22;8330;-33.858;151.184;2023-12-22T04:27:05;25.60;89.70
16441;DHT22;8330;-33.858;151.184;2023-12-22T04:29:36;25.70;89.30
16441;DHT22;8330;-33.858;151.184;2023-12-22T04:32:07;25.70;90.40
16441;DHT22;8330;-33.858;151.184;2023-12-22T04:34:38;25.60;91.50
16441;DHT22;8330;-33.858;151.184;2023-12-22T04:37:08;25.70;91.90
16441;DHT22;8330;-33.858;151.184;2023-12-22T04:39:41;25.70;91.90
16441;DHT22;8330;-33.858;151.184;2023-12-22T04:42:12;25.80;92.60
16441;DHT22;8330;-33.858;151.184;2023-12-22T04:44:43;25.80;92.40
16441;DHT22;8330;-33.858;151.184;2023-12-22T04:47:15;25.90;92.80
16441;DHT22;8330;-33.858;151.184;2023-12-22T04:49:46;26.00;93.00
16441;DHT22;8330;-33.858;151.184;2023-12-22T04:52:17;26.10;91.70
16441;DHT22;8330;-33.858;151.184;2023-12-22T04:54:49;26.10;92.80
16441;DHT22;8330;-33.858;151.184;2023-12-22T04:57:20;26.20;92.90
16441;DHT22;8330;-33.858;151.184;2023-12-22T04:59:51;26.30;93.70
16441;DHT22;8330;-33.858;151.184;2023-12-22T05:02:22;26.30;94.10
16441;DHT22;8330;-33.858;151.184;2023-12-22T05:04:53;26.30;94.00
16441;DHT22;8330;-33.858;151.184;2023-12-22T05:07:24;26.40;93.90
16441;DHT22;8330;-33.858;151.184;2023-12-22T05:09:57;26.50;94.50
16441;DHT22;8330;-33.858;151.184;2023-12-22T05:12:28;26.60;95.50
16441;DHT22;8330;-33.858;151.184;2023-12-22T05:14:59;26.60;95.40
16441;DHT22;8330;-33.858;151.184;2023-12-22T05:17:29;26.70;95.60
16441;DHT22;8330;-33.858;151.184;2023-12-22T05:20:00;26.80;94.30
16441;DHT22;8330;-33.858;151.184;2023-12-22T05:22:31;26.80;94.70
16441;DHT22;8330;-33.858;151.184;2023-12-22T05:25:04;26.90;93.80
16441;DHT22;8330;-33.858;151.184;2023-12-22T05:27:37;26.90;93.30
16441;DHT22;8330;-33.858;151.184;2023-12-22T05:30:11;26.90;93.60
16441;DHT22;8330;-33.858;151.184;2023-12-22T05:32:42;26.90;93.90
16441;DHT22;8330;-33.858;151.184;2023-12-22T05:35:13;27.00;92.50
16441;DHT22;8330;-33.858;151.184;2023-12-22T05:37:44;27.20;93.00
16441;DHT22;8330;-33.858;151.184;2023-12-22T05:40:17;27.40;92.40
16441;DHT22;8330;-33.858;151.184;2023-12-22T05:42:48;27.40;91.50
16441;DHT22;8330;-33.858;151.184;2023-12-22T05:45:19;27.60;90.90
16441;DHT22;8330;-33.858;151.184;2023-12-22T05:47:50;27.80;90.20
16441;DHT22;8330;-33.858;151.184;2023-12-22T05:50:21;27.80;90.70
16441;DHT22;8330;-33.858;151.184;2023-12-22T05:52:51;28.10;89.00
16441;DHT22;8330;-33.858;151.184;2023-12-22T05:55:24;28.30;86.10
16441;DHT22;8330;-33.858;151.184;2023-12-22T05:57:55;28.40;88.30
16441;DHT22;8330;-33.858;151.184;2023-12-22T06:00:25;28.80;86.90
16441;DHT22;8330;-33.858;151.184;2023-12-22T06:02:56;29.20;88.00
16441;DHT22;8330;-33.858;151.184;2023-12-22T06:05:27;29.60;87.00
16441;DHT22;8330;-33.858;151.184;2023-12-22T06:07:58;29.70;85.10
16441;DHT22;8330;-33.858;151.184;2023-12-22T06:10:31;29.70;83.50
16441;DHT22;8330;-33.858;151.184;2023-12-22T06:13:02;29.70;84.10
16441;DHT22;8330;-33.858;151.184;2023-12-22T06:15:33;29.60;82.10
16441;DHT22;8330;-33.858;151.184;2023-12-22T06:18:04;29.60;82.30
16441;DHT22;8330;-33.858;151.184;2023-12-22T06:20:35;29.50;82.60
16441;DHT22;8330;-33.858;151.184;2023-12-22T06:23:06;29.40;81.40
16441;DHT22;8330;-33.858;151.184;2023-12-22T06:25:38;29.20;83.00
16441;DHT22;8330;-33.858;151.184;2023-12-22T06:28:09;29.40;83.20
16441;DHT22;8330;-33.858;151.184;2023-12-22T06:30:40;29.40;83.90
16441;DHT22;8330;-33.858;151.184;2023-12-22T06:33:11;29.50;83.80
16441;DHT22;8330;-33.858;151.184;2023-12-22T06:35:42;29.60;84.70
16441;DHT22;8330;-33.858;151.184;2023-12-22T06:38:13;29.70;86.40
16441;DHT22;8330;-33.858;151.184;2023-12-22T06:40:46;30.00;84.40
16441;DHT22;8330;-33.858;151.184;2023-12-22T06:43:16;30.40;81.40
16441;DHT22;8330;-33.858;151.184;2023-12-22T06:45:47;30.60;80.70
16441;DHT22;8330;-33.858;151.184;2023-12-22T06:48:19;30.90;77.70
16441;DHT22;8330;-33.858;151.184;2023-12-22T06:50:50;31.10;76.50
16441;DHT22;8330;-33.858;151.184;2023-12-22T06:53:21;31.50;75.60
16441;DHT22;8330;-33.858;151.184;2023-12-22T06:55:53;31.70;74.60
16441;DHT22;8330;-33.858;151.184;2023-12-22T06:58:24;31.70;70.40
16441;DHT22;8330;-33.858;151.184;2023-12-22T07:00:55;31.60;70.70
16441;DHT22;8330;-33.858;151.184;2023-12-22T07:03:26;31.70;71.90
16441;DHT22;8330;-33.858;151.184;2023-12-22T07:05:57;31.70;69.10
16441;DHT22;8330;-33.858;151.184;2023-12-22T07:08:27;31.70;65.10
16441;DHT22;8330;-33.858;151.184;2023-12-22T07:11:00;31.40;67.30
16441;DHT22;8330;-33.858;151.184;2023-12-22T07:13:31;31.30;69.20
16441;DHT22;8330;-33.858;151.184;2023-12-22T07:16:02;31.50;68.20
16441;DHT22;8330;-33.858;151.184;2023-12-22T07:18:32;31.40;64.30
16441;DHT22;8330;-33.858;151.184;2023-12-22T07:21:03;31.20;65.90
16441;DHT22;8330;-33.858;151.184;2023-12-22T07:23:35;31.40;65.50
16441;DHT22;8330;-33.858;151.184;2023-12-22T07:26:07;31.50;67.40
16441;DHT22;8330;-33.858;151.184;2023-12-22T07:28:38;31.60;66.00
16441;DHT22;8330;-33.858;151.184;2023-12-22T07:31:09;31.70;63.80
16441;DHT22;8330;-33.858;151.184;2023-12-22T07:33:40;31.30;64.50
16441;DHT22;8330;-33.858;151.184;2023-12-22T07:36:11;31.50;65.10
16441;DHT22;8330;-33.858;151.184;2023-12-22T07:38:42;31.80;64.60
16441;DHT22;8330;-33.858;151.184;2023-12-22T07:41:15;31.90;64.00
16441;DHT22;8330;-33.858;151.184;2023-12-22T07:43:45;31.90;63.50
16441;DHT22;8330;-33.858;151.184;2023-12-22T07:46:19;32.10;63.20
16441;DHT22;8330;-33.858;151.184;2023-12-22T07:48:51;31.90;65.00
16441;DHT22;8330;-33.858;151.184;2023-12-22T07:51:22;31.70;66.00
16441;DHT22;8330;-33.858;151.184;2023-12-22T07:53:53;31.60;64.50
16441;DHT22;8330;-33.858;151.184;2023-12-22T07:56:26;31.10;66.20
16441;DHT22;8330;-33.858;151.184;2023-12-22T07:58:57;31.10;66.80
16441;DHT22;8330;-33.858;151.184;2023-12-22T08:01:30;30.80;66.90
16441;DHT22;8330;-33.858;151.184;2023-12-22T08:04:02;30.30;69.60
16441;DHT22;8330;-33.858;151.184;2023-12-22T08:06:33;29.80;71.80
16441;DHT22;8330;-33.858;151.184;2023-12-22T08:09:04;29.40;73.80
16441;DHT22;8330;-33.858;151.184;2023-12-22T08:11:37;28.90;75.50
16441;DHT22;8330;-33.858;151.184;2023-12-22T08:14:08;28.40;77.10
16441;DHT22;8330;-33.858;151.184;2023-12-22T08:16:40;28.00;79.80
16441;DHT22;8330;-33.858;151.184;2023-12-22T08:19:12;27.50;82.50
16441;DHT22;8330;-33.858;151.184;2023-12-22T08:21:44;27.20;86.10
16441;DHT22;8330;-33.858;151.184;2023-12-22T08:24:15;26.80;89.80
16441;DHT22;8330;-33.858;151.184;2023-12-22T08:26:49;26.50;91.60
16441;DHT22;8330;-33.858;151.184;2023-12-22T08:29:20;26.10;93.80
16441;DHT22;8330;-33.858;151.184;2023-12-22T08:31:51;25.90;95.20
16441;DHT22;8330;-33.858;151.184;2023-12-22T08:34:23;25.60;96.50
16441;DHT22;8330;-33.858;151.184;2023-12-22T08:36:54;25.40;98.40
16441;DHT22;8330;-33.858;151.184;2023-12-22T08:39:25;25.30;99.90
16441;DHT22;8330;-33.858;151.184;2023-12-22T08:41:58;25.10;99.90
16441;DHT22;8330;-33.858;151.184;2023-12-22T08:44:30;25.00;99.90
16441;DHT22;8330;-33.858;151.184;2023-12-22T08:47:01;24.90;99.90
16441;DHT22;8330;-33.858;151.184;2023-12-22T08:49:32;24.80;99.90
16441;DHT22;8330;-33.858;151.184;2023-12-22T08:52:03;24.80;99.90
16441;DHT22;8330;-33.858;151.184;2023-12-22T08:54:34;24.70;99.90
16441;DHT22;8330;-33.858;151.184;2023-12-22T08:57:09;24.70;99.90
16441;DHT22;8330;-33.858;151.184;2023-12-22T08:59:40;24.70;99.90
16441;DHT22;8330;-33.858;151.184;2023-12-22T09:02:11;24.60;99.90
16441;DHT22;8330;-33.858;151.184;2023-12-22T09:04:42;24.50;99.90
16441;DHT22;8330;-33.858;151.184;2023-12-22T09:07:13;24.50;99.90
16441;DHT22;8330;-33.858;151.184;2023-12-22T09:09:44;24.40;99.90
16441;DHT22;8330;-33.858;151.184;2023-12-22T09:12:17;24.30;99.90
16441;DHT22;8330;-33.858;151.184;2023-12-22T09:14:50;24.30;99.90
16441;DHT22;8330;-33.858;151.184;2023-12-22T09:17:21;24.20;99.90
16441;DHT22;8330;-33.858;151.184;2023-12-22T09:19:52;24.20;99.90
16441;DHT22;8330;-33.858;151.184;2023-12-22T09:22:23;24.20;99.90
16441;DHT22;8330;-33.858;151.184;2023-12-22T09:24:54;24.10;99.90
16441;DHT22;8330;-33.858;151.184;2023-12-22T09:27:27;24.10;99.90
16441;DHT22;8330;-33.858;151.184;2023-12-22T09:29:59;24.00;99.90
16441;DHT22;8330;-33.858;151.184;2023-12-22T09:32:30;24.00;99.90
16441;DHT22;8330;-33.858;151.184;2023-12-22T09:35:02;23.90;99.90
16441;DHT22;8330;-33.858;151.184;2023-12-22T09:37:33;23.90;99.90
16441;DHT22;8330;-33.858;151.184;2023-12-22T09:40:05;23.80;99.90
16441;DHT22;8330;-33.858;151.184;2023-12-22T09:42:41;23.70;99.90
16441;DHT22;8330;-33.858;151.184;2023-12-22T09:45:14;23.70;99.90
16441;DHT22;8330;-33.858;151.184;2023-12-22T09:47:47;23.70;99.90
16441;DHT22;8330;-33.858;151.184;2023-12-22T09:50:19;23.70;99.90
16441;DHT22;8330;-33.858;151.184;2023-12-22T09:52:50;23.70;99.90
16441;DHT22;8330;-33.858;151.184;2023-12-22T09:55:22;23.60;99.90
16441;DHT22;8330;-33.858;151.184;2023-12-22T09:57:57;23.60;99.90
16441;DHT22;8330;-33.858;151.184;2023-12-22T10:00:30;23.60;99.90
16441;DHT22;8330;-33.858;151.184;2023-12-22T10:03:02;23.60;99.90
16441;DHT22;8330;-33.858;151.184;2023-12-22T10:05:34;23.60;99.90
16441;DHT22;8330;-33.858;151.184;2023-12-22T10:08:06;23.60;99.90
16441;DHT22;8330;-33.858;151.184;2023-12-22T10:10:39;23.50;99.90
16441;DHT22;8330;-33.858;151.184;2023-12-22T10:13:13;23.50;99.90
16441;DHT22;8330;-33.858;151.184;2023-12-22T10:15:45;23.40;99.90
16441;DHT22;8330;-33.858;151.184;2023-12-22T10:18:17;23.40;99.90
16441;DHT22;8330;-33.858;151.184;2023-12-22T10:20:48;23.40;99.90
16441;DHT22;8330;-33.858;151.184;2023-12-22T10:23:19;23.40;99.90
16441;DHT22;8330;-33.858;151.184;2023-12-22T10:25:51;23.30;99.90
16441;DHT22;8330;-33.858;151.184;2023-12-22T10:28:24;23.40;99.90
16441;DHT22;8330;-33.858;151.184;2023-12-22T10:30:58;23.30;99.90
16441;DHT22;8330;-33.858;151.184;2023-12-22T10:33:34;23.40;99.90
16441;DHT22;8330;-33.858;151.184;2023-12-22T10:36:08;23.30;99.90
16441;DHT22;8330;-33.858;151.184;2023-12-22T10:38:40;23.20;99.90
16441;DHT22;8330;-33.858;151.184;2023-12-22T10:41:13;23.20;99.90
16441;DHT22;8330;-33.858;151.184;2023-12-22T10:43:46;23.30;99.90
16441;DHT22;8330;-33.858;151.184;2023-12-22T10:46:18;23.20;99.90
16441;DHT22;8330;-33.858;151.184;2023-12-22T10:48:49;23.20;99.90
16441;DHT22;8330;-33.858;151.184;2023-12-22T10:51:24;23.20;99.90
16441;DHT22;8330;-33.858;151.184;2023-12-22T10:54:00;23.20;99.90
16441;DHT22;8330;-33.858;151.184;2023-12-22T10:56:31;23.30;99.90
16441;DHT22;8330;-33.858;151.184;2023-12-22T10:59:04;23.20;99.90
16441;DHT22;8330;-33.858;151.184;2023-12-22T11:01:37;23.30;99.90
16441;DHT22;8330;-33.858;151.184;2023-12-22T11:04:08;23.30;99.90
16441;DHT22;8330;-33.858;151.184;2023-12-22T11:06:41;23.30;99.90
16441;DHT22;8330;-33.858;151.184;2023-12-22T11:09:12;23.20;99.90
16441;DHT22;8330;-33.858;151.184;2023-12-22T11:11:46;23.20;99.90
16441;DHT22;8330;-33.858;151.184;2023-12-22T11:14:20;23.20;99.90
16441;DHT22;8330;-33.858;151.184;2023-12-22T11:16:52;23.10;99.90
16441;DHT22;8330;-33.858;151.184;2023-12-22T11:19:25;23.10;99.90
16441;DHT22;8330;-33.858;151.184;2023-12-22T11:21:59;23.10;99.90
16441;DHT22;8330;-33.858;151.184;2023-12-22T11:24:32;23.00;99.90
16441;DHT22;8330;-33.858;151.184;2023-12-22T11:27:05;23.00;99.90
16441;DHT22;8330;-33.858;151.184;2023-12-22T11:29:39;23.00;99.90
16441;DHT22;8330;-33.858;151.184;2023-12-22T11:32:13;22.90;99.90
16441;DHT22;8330;-33.858;151.184;2023-12-22T11:34:46;22.90;99.90
16441;DHT22;8330;-33.858;151.184;2023-12-22T11:37:17;22.90;99.90
16441;DHT22;8330;-33.858;151.184;2023-12-22T11:39:48;22.90;99.90
16441;DHT22;8330;-33.858;151.184;2023-12-22T11:42:23;22.90;99.90
16441;DHT22;8330;-33.858;151.184;2023-12-22T11:44:58;22.90;99.90
16441;DHT22;8330;-33.858;151.184;2023-12-22T11:47:29;22.90;99.90
16441;DHT22;8330;-33.858;151.184;2023-12-22T11:50:01;22.90;99.90
16441;DHT22;8330;-33.858;151.184;2023-12-22T11:52:32;22.90;99.90
16441;DHT22;8330;-33.858;151.184;2023-12-22T11:55:03;22.80;99.90
16441;DHT22;8330;-33.858;151.184;2023-12-22T11:57:36;22.80;99.90
16441;DHT22;8330;-33.858;151.184;2023-12-22T12:00:39;22.80;99.90
16441;DHT22;8330;-33.858;151.184;2023-12-22T12:03:11;22.70;99.90
16441;DHT22;8330;-33.858;151.184;2023-12-22T12:05:43;22.70;99.90
16441;DHT22;8330;-33.858;151.184;2023-12-22T12:08:14;22.70;99.90
16441;DHT22;8330;-33.858;151.184;2023-12-22T12:10:54;22.70;99.90
16441;DHT22;8330;-33.858;151.184;2023-12-22T12:13:27;22.70;99.90
16441;DHT22;8330;-33.858;151.184;2023-12-22T12:16:02;22.80;99.90
16441;DHT22;8330;-33.858;151.184;2023-12-22T12:18:33;22.80;99.90
16441;DHT22;8330;-33.858;151.184;2023-12-22T12:21:07;22.80;99.90
16441;DHT22;8330;-33.858;151.184;2023-12-22T12:23:38;22.70;99.90
16441;DHT22;8330;-33.858;151.184;2023-12-22T12:26:12;22.70;99.90
16441;DHT22;8330;-33.858;151.184;2023-12-22T12:28:46;22.70;99.90
16441;DHT22;8330;-33.858;151.184;2023-12-22T12:31:19;22.80;99.90
16441;DHT22;8330;-33.858;151.184;2023-12-22T12:34:05;22.80;99.90
16441;DHT22;8330;-33.858;151.184;2023-12-22T12:36:36;22.80;99.90
16441;DHT22;8330;-33.858;151.184;2023-12-22T12:39:08;22.80;99.90
16441;DHT22;8330;-33.858;151.184;2023-12-22T12:41:42;22.80;99.90
16441;DHT22;8330;-33.858;151.184;2023-12-22T12:44:14;22.80;99.90
16441;DHT22;8330;-33.858;151.184;2023-12-22T12:46:47;22.80;99.90
16441;DHT22;8330;-33.858;151.184;2023-12-22T12:49:18;22.70;99.90
16441;DHT22;8330;-33.858;151.184;2023-12-22T12:51:50;22.70;99.90
16441;DHT22;8330;-33.858;151.184;2023-12-22T12:54:20;22.70;99.90
16441;DHT22;8330;-33.858;151.184;2023-12-22T12:56:51;22.70;99.90
16441;DHT22;8330;-33.858;151.184;2023-12-22T12:59:22;22.70;99.90
16441;DHT22;8330;-33.858;151.184;2023-12-22T13:01:55;22.70;99.90
16441;DHT22;8330;-33.858;151.184;2023-12-22T13:04:38;22.70;99.90
16441;DHT22;8330;-33.858;151.184;2023-12-22T13:07:09;22.70;99.90
16441;DHT22;8330;-33.858;151.184;2023-12-22T13:09:40;22.80;99.90
16441;DHT22;8330;-33.858;151.184;2023-12-22T13:12:14;22.80;99.90
16441;DHT22;8330;-33.858;151.184;2023-12-22T13:14:45;22.80;99.90
16441;DHT22;8330;-33.858;151.184;2023-12-22T13:17:18;22.80;99.90
16441;DHT22;8330;-33.858;151.184;2023-12-22T13:19:49;22.80;99.90
16441;DHT22;8330;-33.858;151.184;2023-12-22T13:22:20;22.80;99.90
16441;DHT22;8330;-33.858;151.184;2023-12-22T13:24:57;22.60;99.90
16441;DHT22;8330;-33.858;151.184;2023-12-22T13:27:28;22.50;99.90
16441;DHT22;8330;-33.858;151.184;2023-12-22T13:29:58;22.30;99.90
16441;DHT22;8330;-33.858;151.184;2023-12-22T13:32:31;22.10;99.90
16441;DHT22;8330;-33.858;151.184;2023-12-22T13:35:02;22.00;99.90
16441;DHT22;8330;-33.858;151.184;2023-12-22T13:37:33;21.90;99.90
16441;DHT22;8330;-33.858;151.184;2023-12-22T13:40:08;21.80;99.90
16441;DHT22;8330;-33.858;151.184;2023-12-22T13:42:39;21.80;99.90
16441;DHT22;8330;-33.858;151.184;2023-12-22T13:45:12;21.70;99.90
16441;DHT22;8330;-33.858;151.184;2023-12-22T13:47:45;21.70;99.90
16441;DHT22;8330;-33.858;151.184;2023-12-22T13:50:16;21.60;99.90
16441;DHT22;8330;-33.858;151.184;2023-12-22T13:52:47;21.60;99.90
16441;DHT22;8330;-33.858;151.184;2023-12-22T13:55:19;21.60;99.90
16441;DHT22;8330;-33.858;151.184;2023-12-22T13:57:58;21.60;99.90
16441;DHT22;8330;-33.858;151.184;2023-12-22T14:00:30;21.70;99.90
16441;DHT22;8330;-33.858;151.184;2023-12-22T14:03:03;21.70;99.90
16441;DHT22;8330;-33.858;151.184;2023-12-22T14:05:34;21.70;99.90
16441;DHT22;8330;-33.858;151.184;2023-12-22T14:08:05;21.70;99.90
16441;DHT22;8330;-33.858;151.184;2023-12-22T14:10:36;21.80;99.90
16441;DHT22;8330;-33.858;151.184;2023-12-22T14:13:07;21.70;99.90
16441;DHT22;8330;-33.858;151.184;2023-12-22T14:15:38;21.70;99.90
16441;DHT22;8330;-33.858;151.184;2023-12-22T14:18:10;21.80;99.90
16441;DHT22;8330;-33.858;151.184;2023-12-22T14:20:41;21.80;99.90
16441;DHT22;8330;-33.858;151.184;2023-12-22T14:23:13;21.80;99.90
16441;DHT22;8330;-33.858;151.184;2023-12-22T14:25:45;21.60;99.90
16441;DHT22;8330;-33.858;151.184;2023-12-22T14:28:16;21.70;99.90
16441;DHT22;8330;-33.858;151.184;2023-12-22T14:30:47;21.60;99.90
16441;DHT22;8330;-33.858;151.184;2023-12-22T14:33:19;21.60;99.90
16441;DHT22;8330;-33.858;151.184;2023-12-22T14:35:50;21.60;99.90
16441;DHT22;8330;-33.858;151.184;2023-12-22T14:38:21;21.70;99.90
16441;DHT22;8330;-33.858;151.184;2023-12-22T14:40:52;21.60;99.90
16441;DHT22;8330;-33.858;151.184;2023-12-22T14:43:22;21.60;99.90
16441;DHT22;8330;-33.858;151.184;2023-12-22T14:45:53;21.70;99.90
16441;DHT22;8330;-33.858;151.184;2023-12-22T14:48:26;21.70;99.90
16441;DHT22;8330;-33.858;151.184;2023-12-22T14:50:57;21.50;99.90
16441;DHT22;8330;-33.858;151.184;2023-12-22T14:53:27;21.40;99.90
16441;DHT22;8330;-33.858;151.184;2023-12-22T14:55:58;21.40;99.90
16441;DHT22;8330;-33.858;151.184;2023-12-22T14:58:29;21.30;99.90
16441;DHT22;8330;-33.858;151.184;2023-12-22T15:01:00;21.20;99.90
16441;DHT22;8330;-33.858;151.184;2023-12-22T15:03:33;21.10;99.90
16441;DHT22;8330;-33.858;151.184;2023-12-22T15:06:04;21.10;99.90
16441;DHT22;8330;-33.858;151.184;2023-12-22T15:08:35;21.10;99.90
16441;DHT22;8330;-33.858;151.184;2023-12-22T15:11:06;21.10;99.90
16441;DHT22;8330;-33.858;151.184;2023-12-22T15:13:39;21.20;99.90
16441;DHT22;8330;-33.858;151.184;2023-12-22T15:16:10;21.20;99.90
16441;DHT22;8330;-33.858;151.184;2023-12-22T15:18:43;21.20;99.90
16441;DHT22;8330;-33.858;151.184;2023-12-22T15:21:20;21.30;99.90
16441;DHT22;8330;-33.858;151.184;2023-12-22T15:23:52;21.30;99.90
16441;DHT22;8330;-33.858;151.184;2023-12-22T15:26:23;21.30;99.90
16441;DHT22;8330;-33.858;151.184;2023-12-22T15:28:54;21.20;99.90
16441;DHT22;8330;-33.858;151.184;2023-12-22T15:31:24;21.30;99.90